createdAt,value
2022-11-16T00:02:08.847Z,3.45
2022-11-16T00:05:11.043Z,4.15
2022-11-16T00:08:12.727Z,3.00
2022-11-16T00:11:18.007Z,3.15
2022-11-16T00:14:21.451Z,2.85
2022-11-16T00:20:24.847Z,3.88
2022-11-16T00:23:27.104Z,2.88
2022-11-16T00:26:29.179Z,4.00
2022-11-16T00:29:31.165Z,3.05
2022-11-16T00:32:33.540Z,4.18
2022-11-16T00:35:39.898Z,3.30
2022-11-16T00:38:42.182Z,3.15
2022-11-16T00:41:44.893Z,3.25
2022-11-16T00:44:46.867Z,3.90
2022-11-16T00:47:48.845Z,5.45
2022-11-16T00:50:50.531Z,2.95
2022-11-16T00:53:52.277Z,4.63
2022-11-16T00:56:54.162Z,3.70
2022-11-16T00:59:55.865Z,3.55
2022-11-16T01:02:57.526Z,3.28
2022-11-16T01:06:09.706Z,4.28
2022-11-16T01:09:11.533Z,3.08
2022-11-16T01:12:13.375Z,2.63
2022-11-16T01:15:16.352Z,3.63
2022-11-16T01:18:18.284Z,3.05
2022-11-16T01:21:23.312Z,3.28
2022-11-16T01:24:26.487Z,3.45
2022-11-16T01:27:29.127Z,4.68
2022-11-16T01:30:30.985Z,3.93
2022-11-16T01:33:32.857Z,2.65
2022-11-16T01:36:36.694Z,2.25
2022-11-16T01:39:38.489Z,2.42
2022-11-16T01:42:40.931Z,4.07
2022-11-16T01:45:43.274Z,4.07
2022-11-16T01:48:45.724Z,2.80
2022-11-16T01:51:53.044Z,2.50
2022-11-16T01:54:55.760Z,2.30
2022-11-16T01:57:58.006Z,3.78
2022-11-16T02:01:00.110Z,2.85
2022-11-16T02:04:01.864Z,2.35
2022-11-16T02:07:21.599Z,4.38
2022-11-16T02:10:57.914Z,3.47
2022-11-16T02:14:11.524Z,3.13
2022-11-16T02:20:41.055Z,2.33
2022-11-16T02:24:01.295Z,4.63
2022-11-16T02:27:11.235Z,2.92
2022-11-16T02:30:14.036Z,3.28
2022-11-16T02:33:21.766Z,2.45
2022-11-16T02:36:25.137Z,2.50
2022-11-16T02:42:38.978Z,2.38
2022-11-16T02:45:45.754Z,1.85
2022-11-16T02:48:52.873Z,2.25
2022-11-16T02:51:55.836Z,3.72
2022-11-16T02:54:57.624Z,1.98
2022-11-16T02:58:05.747Z,1.80
2022-11-16T03:01:25.191Z,2.80
2022-11-16T03:04:39.581Z,3.53
2022-11-16T03:07:52.257Z,3.15
2022-11-16T03:11:18.892Z,2.95
2022-11-16T03:14:23.944Z,4.70
2022-11-16T03:17:30.026Z,5.32
2022-11-16T03:20:33.816Z,3.30
2022-11-16T03:23:35.668Z,2.90
2022-11-16T03:26:44.371Z,2.90
2022-11-16T03:30:00.638Z,2.45
2022-11-16T03:33:34.663Z,8.90
2022-11-16T03:36:40.828Z,4.32
2022-11-16T03:39:43.748Z,2.38
2022-11-16T03:42:49.623Z,4.38
2022-11-16T03:45:51.633Z,6.25
2022-11-16T03:49:01.016Z,6.68
2022-11-16T03:52:02.911Z,2.80
2022-11-16T03:55:06.093Z,2.65
2022-11-16T03:58:08.018Z,11.20
2022-11-16T04:01:10.262Z,3.85
2022-11-16T04:04:32.547Z,4.03
2022-11-16T04:07:52.869Z,3.53
2022-11-16T04:11:13.129Z,3.30
2022-11-16T04:14:43.897Z,5.88
2022-11-16T04:18:04.583Z,5.50
2022-11-16T04:21:28.123Z,7.90
2022-11-16T04:24:35.180Z,7.53
2022-11-16T04:27:55.552Z,8.07
2022-11-16T04:31:19.344Z,5.75
2022-11-16T04:34:40.405Z,4.70
2022-11-16T04:37:52.788Z,8.10
2022-11-16T04:40:54.701Z,7.70
2022-11-16T04:43:57.709Z,6.40
2022-11-16T04:47:08.348Z,4.70
2022-11-16T04:50:10.505Z,5.40
2022-11-16T04:53:12.990Z,6.45
2022-11-16T04:56:15.013Z,6.77
2022-11-16T04:59:16.914Z,7.03
2022-11-16T05:02:18.673Z,10.38
2022-11-16T05:05:20.561Z,4.57
2022-11-16T05:08:22.498Z,8.50
2022-11-16T05:11:24.394Z,5.60
2022-11-16T05:14:26.107Z,5.05
2022-11-16T05:17:28.296Z,9.27
2022-11-16T05:20:48.791Z,8.10
2022-11-16T05:24:09.355Z,7.22
2022-11-16T05:27:13.961Z,5.45
2022-11-16T05:30:16.308Z,7.53
2022-11-16T05:33:18.615Z,9.48
2022-11-16T05:36:20.404Z,4.68
2022-11-16T05:39:22.327Z,8.50
2022-11-16T05:42:24.337Z,5.15
2022-11-16T05:45:26.483Z,7.40
2022-11-16T05:48:28.273Z,8.10
2022-11-16T05:51:30.036Z,6.03
2022-11-16T05:54:31.836Z,5.97
2022-11-16T05:57:33.558Z,8.82
2022-11-16T06:00:35.539Z,4.40
2022-11-16T06:03:37.614Z,8.40
2022-11-16T06:06:39.633Z,14.60
2022-11-16T06:09:41.425Z,19.75
2022-11-16T06:12:43.244Z,31.27
2022-11-16T06:15:51.581Z,28.55
2022-11-16T06:18:53.609Z,26.15
2022-11-16T06:21:56.723Z,26.98
2022-11-16T06:24:58.824Z,27.20
2022-11-16T06:28:05.267Z,18.63
2022-11-16T06:31:09.397Z,15.60
2022-11-16T06:34:11.198Z,12.23
2022-11-16T06:37:13.014Z,12.65
2022-11-16T06:40:15.097Z,9.63
2022-11-16T06:43:17.285Z,10.32
2022-11-16T06:46:19.093Z,6.82
2022-11-16T06:49:20.960Z,8.55
2022-11-16T06:52:22.793Z,8.10
2022-11-16T06:55:24.749Z,6.80
2022-11-16T06:58:28.403Z,6.00
2022-11-16T07:01:30.389Z,6.18
2022-11-16T07:04:32.857Z,7.90
2022-11-16T07:07:34.681Z,6.32
2022-11-16T07:10:38.283Z,8.75
2022-11-16T07:13:40.052Z,6.97
2022-11-16T07:16:41.762Z,7.93
2022-11-16T07:19:43.596Z,10.15
2022-11-16T07:22:46.233Z,10.25
2022-11-16T07:25:47.962Z,9.20
2022-11-16T07:28:49.742Z,5.30
2022-11-16T07:31:51.780Z,10.27
2022-11-16T07:34:53.549Z,8.80
2022-11-16T07:37:55.561Z,10.48
2022-11-16T07:41:06.677Z,6.72
2022-11-16T07:44:12.357Z,7.88
2022-11-16T07:47:14.736Z,11.07
2022-11-16T07:50:17.095Z,10.63
2022-11-16T07:53:18.934Z,5.90
2022-11-16T07:56:20.835Z,6.72
2022-11-16T07:59:22.573Z,9.32
2022-11-16T08:02:24.342Z,9.80
2022-11-16T08:05:26.048Z,7.68
2022-11-16T08:08:28.040Z,5.47
2022-11-16T08:11:29.987Z,7.93
2022-11-16T08:14:31.690Z,6.80
2022-11-16T08:17:33.451Z,9.75
2022-11-16T08:20:36.649Z,8.55
2022-11-16T08:23:42.573Z,9.48
2022-11-16T08:26:44.296Z,10.65
2022-11-16T08:29:46.616Z,8.05
2022-11-16T08:32:48.651Z,8.55
2022-11-16T08:35:51.572Z,9.93
2022-11-16T08:38:53.756Z,5.80
2022-11-16T08:41:55.484Z,6.82
2022-11-16T08:44:57.765Z,8.43
2022-11-16T08:48:03.936Z,6.45
2022-11-16T08:51:18.601Z,8.40
2022-11-16T08:54:21.331Z,7.18
2022-11-16T08:57:23.114Z,4.20
2022-11-16T09:00:25.192Z,8.35
2022-11-16T09:03:27.942Z,8.05
2022-11-16T09:06:29.732Z,6.88
2022-11-16T09:09:31.617Z,6.78
2022-11-16T09:12:34.472Z,6.28
2022-11-16T09:15:36.161Z,10.32
2022-11-16T09:18:38.126Z,5.95
2022-11-16T09:21:40.245Z,7.95
2022-11-16T09:24:42.338Z,6.85
2022-11-16T09:27:44.278Z,6.45
2022-11-16T09:30:47.937Z,7.82
2022-11-16T09:33:49.903Z,6.63
2022-11-16T09:36:52.178Z,3.88
2022-11-16T09:39:54.631Z,10.65
2022-11-16T09:43:02.793Z,9.73
2022-11-16T09:46:29.350Z,6.10
2022-11-16T09:49:42.698Z,5.47
2022-11-16T09:52:48.076Z,9.23
2022-11-16T09:56:06.503Z,10.30
2022-11-16T09:59:11.082Z,8.95
2022-11-16T10:02:21.547Z,5.38
2022-11-16T10:05:29.860Z,9.75
2022-11-16T10:09:01.197Z,8.70
2022-11-16T10:12:06.651Z,7.53
2022-11-16T10:15:41.627Z,6.95
2022-11-16T10:19:04.431Z,7.93
2022-11-16T10:22:38.574Z,6.20
2022-11-16T10:29:22.568Z,6.80
2022-11-16T10:32:30.485Z,8.07
2022-11-16T10:35:54.563Z,6.10
2022-11-16T10:38:59.432Z,6.65
2022-11-16T10:42:07.731Z,6.40
2022-11-16T10:45:39.878Z,6.22
2022-11-16T10:49:16.342Z,6.95
2022-11-16T10:52:18.216Z,8.68
2022-11-16T10:55:22.021Z,9.15
2022-11-16T10:58:23.798Z,4.70
2022-11-16T11:01:31.355Z,8.10
2022-11-16T11:04:33.382Z,7.32
2022-11-16T11:07:39.892Z,5.03
2022-11-16T11:10:42.459Z,6.28
2022-11-16T11:13:44.210Z,9.35
2022-11-16T11:16:45.914Z,6.05
2022-11-16T11:20:01.065Z,5.85
2022-11-16T11:23:11.525Z,4.15
2022-11-16T11:26:40.227Z,4.80
2022-11-16T11:29:43.239Z,6.63
2022-11-16T11:32:44.928Z,9.35
2022-11-16T11:36:06.414Z,5.50
2022-11-16T11:39:29.696Z,6.80
2022-11-16T11:42:31.798Z,4.68
2022-11-16T11:46:07.535Z,9.20
2022-11-16T11:49:16.331Z,2.92
2022-11-16T11:52:52.522Z,7.30
2022-11-16T11:55:58.840Z,4.28
2022-11-16T11:59:03.107Z,5.65
2022-11-16T12:02:30.745Z,6.22
2022-11-16T12:05:57.565Z,6.40
2022-11-16T12:09:36.416Z,6.15
2022-11-16T12:12:58.140Z,3.38
2022-11-16T12:16:38.308Z,5.00
2022-11-16T12:19:59.513Z,6.53
2022-11-16T12:23:34.033Z,10.20
2022-11-16T12:27:06.948Z,7.15
2022-11-16T12:30:16.445Z,3.10
2022-11-16T12:33:27.284Z,5.50
2022-11-16T12:36:31.970Z,5.20
2022-11-16T12:39:39.758Z,7.05
2022-11-16T12:42:59.870Z,4.68
2022-11-16T12:46:25.074Z,4.85
2022-11-16T12:50:06.538Z,4.85
2022-11-16T12:53:08.494Z,7.80
2022-11-16T12:56:48.656Z,7.63
2022-11-16T13:00:14.218Z,5.65
2022-11-16T13:03:25.859Z,5.60
2022-11-16T13:06:34.765Z,6.22
2022-11-16T13:09:42.854Z,7.13
2022-11-16T13:12:47.677Z,5.88
2022-11-16T13:15:50.110Z,4.85
2022-11-16T13:18:53.890Z,6.45
2022-11-16T13:22:07.260Z,5.20
2022-11-16T13:25:31.541Z,10.02
2022-11-16T13:29:07.223Z,5.00
2022-11-16T13:32:32.241Z,3.97
2022-11-16T13:35:37.881Z,4.95
2022-11-16T13:38:54.762Z,8.10
2022-11-16T13:42:11.533Z,9.40
2022-11-16T13:45:20.138Z,6.75
2022-11-16T13:48:25.513Z,6.22
2022-11-16T13:51:28.770Z,4.28
2022-11-16T13:54:50.146Z,5.70
2022-11-16T13:57:55.601Z,3.72
2022-11-16T14:01:08.329Z,6.70
2022-11-16T14:04:46.909Z,3.93
2022-11-16T14:07:50.684Z,7.03
2022-11-16T14:10:52.437Z,4.15
2022-11-16T14:13:54.191Z,4.50
2022-11-16T14:16:56.025Z,5.13
2022-11-16T14:19:58.226Z,4.97
2022-11-16T14:23:02.945Z,4.25
2022-11-16T14:26:07.362Z,3.88
2022-11-16T14:29:30.592Z,6.88
2022-11-16T14:32:39.760Z,4.22
2022-11-16T14:35:52.337Z,5.05
2022-11-16T14:38:54.143Z,4.13
2022-11-16T14:42:02.277Z,5.88
2022-11-16T14:45:07.805Z,3.58
2022-11-16T14:48:19.446Z,7.35
2022-11-16T14:51:26.507Z,5.43
2022-11-16T14:54:46.359Z,9.93
2022-11-16T14:57:48.523Z,5.38
2022-11-16T15:00:57.127Z,3.58
2022-11-16T15:04:07.803Z,7.82
2022-11-16T15:07:11.454Z,8.23
2022-11-16T15:10:20.479Z,4.28
2022-11-16T15:13:24.950Z,8.20
2022-11-16T15:16:26.824Z,4.68
2022-11-16T15:19:31.987Z,4.38
2022-11-16T15:22:41.166Z,8.05
2022-11-16T15:25:56.766Z,5.28
2022-11-16T15:28:59.901Z,5.22
2022-11-16T15:32:01.638Z,6.05
2022-11-16T15:35:05.452Z,6.30
2022-11-16T15:38:17.655Z,5.50
2022-11-16T15:41:20.711Z,4.28
2022-11-16T15:44:23.961Z,8.35
2022-11-16T15:47:27.130Z,5.05
2022-11-16T15:50:31.349Z,8.15
2022-11-16T15:53:36.877Z,8.43
2022-11-16T15:56:39.202Z,5.70
2022-11-16T15:59:41.014Z,4.57
2022-11-16T16:02:44.784Z,2.63
2022-11-16T16:05:46.689Z,7.85
2022-11-16T16:09:04.868Z,3.40
2022-11-16T16:12:23.186Z,5.68
2022-11-16T16:15:33.723Z,6.07
2022-11-16T16:18:41.367Z,4.45
2022-11-16T16:21:45.737Z,10.32
2022-11-16T16:24:47.722Z,7.82
2022-11-16T16:27:49.775Z,4.80
2022-11-16T16:30:52.318Z,4.43
2022-11-16T16:33:55.910Z,5.57
2022-11-16T16:36:57.615Z,3.97
2022-11-16T16:40:00.411Z,6.53
2022-11-16T16:43:02.217Z,5.43
2022-11-16T16:46:04.458Z,8.20
2022-11-16T16:49:06.493Z,6.53
2022-11-16T16:52:11.226Z,4.80
2022-11-16T16:55:13.101Z,9.98
2022-11-16T16:58:15.034Z,6.82
2022-11-16T17:01:16.972Z,5.20
2022-11-16T17:04:19.256Z,8.10
2022-11-16T17:07:21.206Z,4.47
2022-11-16T17:10:23.535Z,3.78
2022-11-16T17:13:25.237Z,3.03
2022-11-16T17:16:27.051Z,3.75
2022-11-16T17:19:29.772Z,3.67
2022-11-16T17:22:33.468Z,3.90
2022-11-16T17:25:37.638Z,4.78
2022-11-16T17:28:39.855Z,2.08
2022-11-16T17:31:44.926Z,2.78
2022-11-16T17:34:46.625Z,2.13
2022-11-16T17:37:48.546Z,6.38
2022-11-16T17:40:50.380Z,4.32
2022-11-16T17:43:53.843Z,4.03
2022-11-16T17:49:58.872Z,3.25
2022-11-16T17:53:00.884Z,2.55
2022-11-16T17:56:03.905Z,4.70
2022-11-16T17:59:05.797Z,4.40
2022-11-16T18:02:11.342Z,3.25
2022-11-16T18:05:13.066Z,7.22
2022-11-16T18:08:14.767Z,2.28
2022-11-16T18:11:19.506Z,5.13
2022-11-16T18:14:21.443Z,5.43
2022-11-16T18:17:23.596Z,2.90
2022-11-16T18:20:27.757Z,4.90
2022-11-16T18:23:29.917Z,4.32
2022-11-16T18:26:31.773Z,3.88
2022-11-16T18:29:33.725Z,4.80
2022-11-16T18:32:36.499Z,4.00
2022-11-16T18:35:38.497Z,5.43
2022-11-16T18:38:40.463Z,4.90
2022-11-16T18:41:51.768Z,6.00
2022-11-16T18:44:56.566Z,3.92
2022-11-16T18:47:58.275Z,4.57
2022-11-16T18:51:05.030Z,4.90
2022-11-16T18:54:07.022Z,5.47
2022-11-16T18:57:09.165Z,6.00
2022-11-16T19:00:11.779Z,4.78
2022-11-16T19:03:13.663Z,3.83
2022-11-16T19:06:17.577Z,4.82
2022-11-16T19:09:19.698Z,5.78
2022-11-16T19:12:21.474Z,2.40
2022-11-16T19:15:25.459Z,13.70
2022-11-16T19:18:27.931Z,7.03
2022-11-16T19:21:29.938Z,3.05
2022-11-16T19:24:31.738Z,4.13
2022-11-16T19:27:33.550Z,7.63
2022-11-16T19:30:35.644Z,5.55
2022-11-16T19:33:38.028Z,6.15
2022-11-16T19:36:40.203Z,3.77
2022-11-16T19:39:41.955Z,5.03
2022-11-16T19:42:43.860Z,6.20
2022-11-16T19:45:45.694Z,6.63
2022-11-16T19:48:49.439Z,7.85
2022-11-16T19:51:51.932Z,8.85
2022-11-16T19:54:53.810Z,10.18
2022-11-16T19:57:55.679Z,7.30
2022-11-16T20:01:29.140Z,6.80
2022-11-16T20:04:34.345Z,10.20
2022-11-16T20:07:38.808Z,7.47
2022-11-16T20:10:41.206Z,6.10
2022-11-16T20:13:43.628Z,8.10
2022-11-16T20:16:47.543Z,5.32
2022-11-16T20:19:49.240Z,6.95
2022-11-16T20:22:50.970Z,4.97
2022-11-16T20:25:52.737Z,6.80
2022-11-16T20:28:54.936Z,6.18
2022-11-16T20:31:56.659Z,6.60
2022-11-16T20:34:58.345Z,8.52
2022-11-16T20:38:00.095Z,7.03
2022-11-16T20:41:13.475Z,7.32
2022-11-16T20:44:19.566Z,8.88
2022-11-16T20:47:21.299Z,7.55
2022-11-16T20:50:23.196Z,4.80
2022-11-16T20:53:25.370Z,7.65
2022-11-16T20:56:27.533Z,8.07
2022-11-16T20:59:29.584Z,8.13
2022-11-16T21:02:31.618Z,5.47
2022-11-16T21:05:33.403Z,4.38
2022-11-16T21:08:37.909Z,5.70
2022-11-16T21:11:58.118Z,6.50
2022-11-16T21:15:00.181Z,3.90
2022-11-16T21:18:02.322Z,5.97
2022-11-16T21:21:10.065Z,6.32
2022-11-16T21:24:11.889Z,4.50
2022-11-16T21:27:13.616Z,7.45
2022-11-16T21:30:15.691Z,7.28
2022-11-16T21:33:17.648Z,9.60
2022-11-16T21:36:21.218Z,6.40
2022-11-16T21:39:22.953Z,10.75
2022-11-16T21:42:24.865Z,9.18
2022-11-16T21:45:26.876Z,12.85
2022-11-16T21:48:30.563Z,11.07
2022-11-16T21:51:32.953Z,13.35
2022-11-16T21:54:47.403Z,9.65
2022-11-16T21:57:49.380Z,9.00
2022-11-16T22:00:55.339Z,9.52
2022-11-16T22:04:15.580Z,9.55
2022-11-16T22:07:32.888Z,7.85
2022-11-16T22:10:35.332Z,5.90
2022-11-16T22:13:38.211Z,6.47
2022-11-16T22:16:40.288Z,5.78
2022-11-16T22:19:41.967Z,6.20
2022-11-16T22:22:44.043Z,4.47
2022-11-16T22:25:45.777Z,4.85
2022-11-16T22:28:47.803Z,3.45
2022-11-16T22:31:49.541Z,2.92
2022-11-16T22:34:51.574Z,6.13
2022-11-16T22:37:53.536Z,4.35
2022-11-16T22:40:56.997Z,3.13
2022-11-16T22:47:00.371Z,4.03
2022-11-16T22:50:03.661Z,1.90
2022-11-16T22:53:05.502Z,4.88
2022-11-16T22:56:08.973Z,3.90
2022-11-16T23:02:12.685Z,3.00
2022-11-16T23:05:14.578Z,2.92
2022-11-16T23:08:16.523Z,2.53
2022-11-16T23:11:39.125Z,2.83
2022-11-16T23:14:59.517Z,5.38
2022-11-16T23:18:01.307Z,9.23
2022-11-16T23:21:21.669Z,4.95
2022-11-16T23:24:42.207Z,2.13
2022-11-16T23:27:49.897Z,1.45
2022-11-16T23:30:51.674Z,1.48
2022-11-16T23:33:53.469Z,1.33
2022-11-16T23:37:01.108Z,1.00
2022-11-16T23:40:02.801Z,1.20
2022-11-16T23:43:24.098Z,0.73
2022-11-16T23:46:31.372Z,0.70
2022-11-16T23:49:33.082Z,1.20
2022-11-16T23:52:35.895Z,1.48
2022-11-16T23:55:39.249Z,2.10
2022-11-16T23:58:40.939Z,0.45
